sensor_id;sensor_type;location;lat;lon;timestamp;temperature;humidity
14144;DHT22;7152;48.348;10.980;2023-07-31T00:02:16;14.90;99.90
14144;DHT22;7152;48.348;10.980;2023-07-31T00:04:42;14.80;99.90
14144;DHT22;7152;48.348;10.980;2023-07-31T00:07:08;14.90;99.90
14144;DHT22;7152;48.348;10.980;2023-07-31T00:09:34;14.80;99.90
14144;DHT22;7152;48.348;10.980;2023-07-31T00:12:00;14.80;99.90
14144;DHT22;7152;48.348;10.980;2023-07-31T00:14:26;14.80;99.90
14144;DHT22;7152;48.348;10.980;2023-07-31T00:16:52;14.70;99.90
14144;DHT22;7152;48.348;10.980;2023-07-31T00:19:17;14.70;99.90
14144;DHT22;7152;48.348;10.980;2023-07-31T00:21:44;14.60;99.90
14144;DHT22;7152;48.348;10.980;2023-07-31T00:24:10;14.60;99.90
14144;DHT22;7152;48.348;10.980;2023-07-31T00:26:36;14.60;99.90
14144;DHT22;7152;48.348;10.980;2023-07-31T00:29:01;14.60;99.90
14144;DHT22;7152;48.348;10.980;2023-07-31T00:31:27;14.50;99.90
14144;DHT22;7152;48.348;10.980;2023-07-31T00:33:53;14.50;99.90
14144;DHT22;7152;48.348;10.980;2023-07-31T00:36:19;14.50;99.90
14144;DHT22;7152;48.348;10.980;2023-07-31T00:38:45;14.50;99.90
14144;DHT22;7152;48.348;10.980;2023-07-31T00:41:11;14.40;99.90
14144;DHT22;7152;48.348;10.980;2023-07-31T00:43:36;14.40;99.90
14144;DHT22;7152;48.348;10.980;2023-07-31T00:46:02;14.40;99.90
14144;DHT22;7152;48.348;10.980;2023-07-31T00:48:28;14.40;99.90
14144;DHT22;7152;48.348;10.980;2023-07-31T00:50:55;14.40;99.90
14144;DHT22;7152;48.348;10.980;2023-07-31T00:53:21;14.40;99.90
14144;DHT22;7152;48.348;10.980;2023-07-31T00:55:47;14.40;99.90
14144;DHT22;7152;48.348;10.980;2023-07-31T00:58:13;14.40;99.90
14144;DHT22;7152;48.348;10.980;2023-07-31T01:00:39;14.40;99.90
14144;DHT22;7152;48.348;10.980;2023-07-31T01:03:05;14.40;99.90
14144;DHT22;7152;48.348;10.980;2023-07-31T01:05:49;14.40;99.90
14144;DHT22;7152;48.348;10.980;2023-07-31T01:08:30;14.50;99.90
14144;DHT22;7152;48.348;10.980;2023-07-31T01:11:07;14.50;99.90
14144;DHT22;7152;48.348;10.980;2023-07-31T01:13:33;14.50;99.90
14144;DHT22;7152;48.348;10.980;2023-07-31T01:15:59;14.50;99.90
14144;DHT22;7152;48.348;10.980;2023-07-31T01:18:26;14.40;99.90
14144;DHT22;7152;48.348;10.980;2023-07-31T01:21:06;14.40;99.90
14144;DHT22;7152;48.348;10.980;2023-07-31T01:23:51;14.40;99.90
14144;DHT22;7152;48.348;10.980;2023-07-31T01:26:26;14.40;99.90
14144;DHT22;7152;48.348;10.980;2023-07-31T01:31:39;14.30;99.90
14144;DHT22;7152;48.348;10.980;2023-07-31T01:34:07;14.30;99.90
14144;DHT22;7152;48.348;10.980;2023-07-31T01:36:35;14.30;99.90
14144;DHT22;7152;48.348;10.980;2023-07-31T01:39:02;14.30;99.90
14144;DHT22;7152;48.348;10.980;2023-07-31T01:41:30;14.30;99.90
14144;DHT22;7152;48.348;10.980;2023-07-31T01:43:56;14.40;99.90
14144;DHT22;7152;48.348;10.980;2023-07-31T01:46:23;14.30;99.90
14144;DHT22;7152;48.348;10.980;2023-07-31T01:48:49;14.30;99.90
14144;DHT22;7152;48.348;10.980;2023-07-31T01:51:14;14.40;99.90
14144;DHT22;7152;48.348;10.980;2023-07-31T01:53:40;14.40;99.90
14144;DHT22;7152;48.348;10.980;2023-07-31T01:56:07;14.40;99.90
14144;DHT22;7152;48.348;10.980;2023-07-31T01:58:33;14.40;99.90
14144;DHT22;7152;48.348;10.980;2023-07-31T02:00:59;14.50;99.90
14144;DHT22;7152;48.348;10.980;2023-07-31T02:03:26;14.50;99.90
14144;DHT22;7152;48.348;10.980;2023-07-31T02:05:54;14.50;99.90
14144;DHT22;7152;48.348;10.980;2023-07-31T02:08:20;14.50;99.90
14144;DHT22;7152;48.348;10.980;2023-07-31T02:10:46;14.50;99.90
14144;DHT22;7152;48.348;10.980;2023-07-31T02:13:12;14.40;99.90
14144;DHT22;7152;48.348;10.980;2023-07-31T02:15:37;14.40;99.90
14144;DHT22;7152;48.348;10.980;2023-07-31T02:18:03;14.30;99.90
14144;DHT22;7152;48.348;10.980;2023-07-31T02:20:33;14.30;99.90
14144;DHT22;7152;48.348;10.980;2023-07-31T02:23:01;14.20;99.90
14144;DHT22;7152;48.348;10.980;2023-07-31T02:25:27;14.20;99.90
14144;DHT22;7152;48.348;10.980;2023-07-31T02:27:53;14.20;99.90
14144;DHT22;7152;48.348;10.980;2023-07-31T02:30:19;14.10;99.90
14144;DHT22;7152;48.348;10.980;2023-07-31T02:32:45;14.00;99.90
14144;DHT22;7152;48.348;10.980;2023-07-31T02:35:10;14.00;99.90
14144;DHT22;7152;48.348;10.980;2023-07-31T02:37:41;14.00;99.90
14144;DHT22;7152;48.348;10.980;2023-07-31T02:40:08;13.90;99.90
14144;DHT22;7152;48.348;10.980;2023-07-31T02:42:33;13.90;99.90
14144;DHT22;7152;48.348;10.980;2023-07-31T02:44:59;13.90;99.90
14144;DHT22;7152;48.348;10.980;2023-07-31T02:47:26;13.80;99.90
14144;DHT22;7152;48.348;10.980;2023-07-31T02:49:52;13.80;99.90
14144;DHT22;7152;48.348;10.980;2023-07-31T02:52:17;13.80;99.90
14144;DHT22;7152;48.348;10.980;2023-07-31T02:54:43;13.80;99.90
14144;DHT22;7152;48.348;10.980;2023-07-31T02:57:09;13.80;99.90
14144;DHT22;7152;48.348;10.980;2023-07-31T02:59:35;13.80;99.90
14144;DHT22;7152;48.348;10.980;2023-07-31T03:02:01;13.80;99.90
14144;DHT22;7152;48.348;10.980;2023-07-31T03:04:27;13.80;99.90
14144;DHT22;7152;48.348;10.980;2023-07-31T03:06:52;13.70;99.90
14144;DHT22;7152;48.348;10.980;2023-07-31T03:09:19;13.70;99.90
14144;DHT22;7152;48.348;10.980;2023-07-31T03:11:44;13.70;99.90
14144;DHT22;7152;48.348;10.980;2023-07-31T03:14:10;13.70;99.90
14144;DHT22;7152;48.348;10.980;2023-07-31T03:16:36;13.80;99.90
14144;DHT22;7152;48.348;10.980;2023-07-31T03:19:02;13.80;99.90
14144;DHT22;7152;48.348;10.980;2023-07-31T03:21:28;13.90;99.90
14144;DHT22;7152;48.348;10.980;2023-07-31T03:23:54;13.90;99.90
14144;DHT22;7152;48.348;10.980;2023-07-31T03:26:20;14.00;99.90
14144;DHT22;7152;48.348;10.980;2023-07-31T03:28:45;14.00;99.90
14144;DHT22;7152;48.348;10.980;2023-07-31T03:31:11;14.00;99.90
14144;DHT22;7152;48.348;10.980;2023-07-31T03:33:37;14.00;99.90
14144;DHT22;7152;48.348;10.980;2023-07-31T03:36:03;14.10;99.90
14144;DHT22;7152;48.348;10.980;2023-07-31T03:38:29;14.10;99.90
14144;DHT22;7152;48.348;10.980;2023-07-31T03:40:55;14.20;99.90
14144;DHT22;7152;48.348;10.980;2023-07-31T03:43:21;14.20;99.90
14144;DHT22;7152;48.348;10.980;2023-07-31T03:45:47;14.20;99.90
14144;DHT22;7152;48.348;10.980;2023-07-31T03:48:14;14.20;99.90
14144;DHT22;7152;48.348;10.980;2023-07-31T03:50:40;14.20;99.90
14144;DHT22;7152;48.348;10.980;2023-07-31T03:53:06;14.30;99.90
14144;DHT22;7152;48.348;10.980;2023-07-31T03:55:32;14.30;99.90
14144;DHT22;7152;48.348;10.980;2023-07-31T03:57:58;14.30;99.90
14144;DHT22;7152;48.348;10.980;2023-07-31T04:00:26;14.40;99.90
14144;DHT22;7152;48.348;10.980;2023-07-31T04:02:52;14.40;99.90
14144;DHT22;7152;48.348;10.980;2023-07-31T04:05:18;14.40;99.90
14144;DHT22;7152;48.348;10.980;2023-07-31T04:07:44;14.50;99.90
14144;DHT22;7152;48.348;10.980;2023-07-31T04:10:10;14.50;99.90
14144;DHT22;7152;48.348;10.980;2023-07-31T04:12:36;14.50;99.90
14144;DHT22;7152;48.348;10.980;2023-07-31T04:15:02;14.60;99.90
14144;DHT22;7152;48.348;10.980;2023-07-31T04:17:29;14.70;99.90
14144;DHT22;7152;48.348;10.980;2023-07-31T04:19:55;14.70;99.90
14144;DHT22;7152;48.348;10.980;2023-07-31T04:22:21;14.80;99.90
14144;DHT22;7152;48.348;10.980;2023-07-31T04:24:47;14.80;99.90
14144;DHT22;7152;48.348;10.980;2023-07-31T04:27:13;14.90;99.90
14144;DHT22;7152;48.348;10.980;2023-07-31T04:29:39;14.90;99.90
14144;DHT22;7152;48.348;10.980;2023-07-31T04:32:05;14.90;99.90
14144;DHT22;7152;48.348;10.980;2023-07-31T04:34:31;15.00;99.90
14144;DHT22;7152;48.348;10.980;2023-07-31T04:36:57;15.00;99.90
14144;DHT22;7152;48.348;10.980;2023-07-31T04:39:23;15.00;99.90
14144;DHT22;7152;48.348;10.980;2023-07-31T04:41:48;15.00;99.90
14144;DHT22;7152;48.348;10.980;2023-07-31T04:44:14;15.00;99.90
14144;DHT22;7152;48.348;10.980;2023-07-31T04:46:40;15.10;99.90
14144;DHT22;7152;48.348;10.980;2023-07-31T04:49:06;15.20;99.90
14144;DHT22;7152;48.348;10.980;2023-07-31T04:51:32;15.20;99.90
14144;DHT22;7152;48.348;10.980;2023-07-31T04:53:57;15.30;99.90
14144;DHT22;7152;48.348;10.980;2023-07-31T04:56:23;15.40;99.90
14144;DHT22;7152;48.348;10.980;2023-07-31T04:58:49;15.50;99.90
14144;DHT22;7152;48.348;10.980;2023-07-31T05:01:15;15.60;99.90
14144;DHT22;7152;48.348;10.980;2023-07-31T05:03:41;15.60;99.90
14144;DHT22;7152;48.348;10.980;2023-07-31T05:06:06;15.70;99.90
14144;DHT22;7152;48.348;10.980;2023-07-31T05:08:32;15.70;99.90
14144;DHT22;7152;48.348;10.980;2023-07-31T05:10:59;15.80;99.90
14144;DHT22;7152;48.348;10.980;2023-07-31T05:13:24;15.80;99.90
14144;DHT22;7152;48.348;10.980;2023-07-31T05:15:50;15.90;99.90
14144;DHT22;7152;48.348;10.980;2023-07-31T05:18:16;15.90;99.90
14144;DHT22;7152;48.348;10.980;2023-07-31T05:20:42;16.00;99.90
14144;DHT22;7152;48.348;10.980;2023-07-31T05:23:08;16.00;99.90
14144;DHT22;7152;48.348;10.980;2023-07-31T05:25:34;16.00;99.90
14144;DHT22;7152;48.348;10.980;2023-07-31T05:28:00;16.10;99.90
14144;DHT22;7152;48.348;10.980;2023-07-31T05:30:25;16.10;99.90
14144;DHT22;7152;48.348;10.980;2023-07-31T05:32:52;16.10;99.90
14144;DHT22;7152;48.348;10.980;2023-07-31T05:35:17;16.10;99.90
14144;DHT22;7152;48.348;10.980;2023-07-31T05:37:43;16.20;99.90
14144;DHT22;7152;48.348;10.980;2023-07-31T05:40:09;16.20;99.90
14144;DHT22;7152;48.348;10.980;2023-07-31T05:42:35;16.30;99.90
14144;DHT22;7152;48.348;10.980;2023-07-31T05:45:04;16.40;99.90
14144;DHT22;7152;48.348;10.980;2023-07-31T05:47:30;16.50;99.90
14144;DHT22;7152;48.348;10.980;2023-07-31T05:49:56;16.60;99.90
14144;DHT22;7152;48.348;10.980;2023-07-31T05:52:22;16.70;99.90
14144;DHT22;7152;48.348;10.980;2023-07-31T05:54:47;16.80;99.90
14144;DHT22;7152;48.348;10.980;2023-07-31T05:57:13;16.80;99.90
14144;DHT22;7152;48.348;10.980;2023-07-31T05:59:39;16.80;99.90
14144;DHT22;7152;48.348;10.980;2023-07-31T06:02:06;16.90;99.90
14144;DHT22;7152;48.348;10.980;2023-07-31T06:04:31;16.90;99.90
14144;DHT22;7152;48.348;10.980;2023-07-31T06:06:57;17.00;99.90
14144;DHT22;7152;48.348;10.980;2023-07-31T06:09:23;17.00;99.90
14144;DHT22;7152;48.348;10.980;2023-07-31T06:11:49;17.00;99.90
14144;DHT22;7152;48.348;10.980;2023-07-31T06:14:15;17.00;99.90
14144;DHT22;7152;48.348;10.980;2023-07-31T06:16:41;17.10;99.90
14144;DHT22;7152;48.348;10.980;2023-07-31T06:19:07;17.10;99.90
14144;DHT22;7152;48.348;10.980;2023-07-31T06:21:33;17.10;99.90
14144;DHT22;7152;48.348;10.980;2023-07-31T06:23:59;17.20;99.90
14144;DHT22;7152;48.348;10.980;2023-07-31T06:26:25;17.20;99.90
14144;DHT22;7152;48.348;10.980;2023-07-31T06:28:50;17.30;99.90
14144;DHT22;7152;48.348;10.980;2023-07-31T06:31:16;17.40;99.90
14144;DHT22;7152;48.348;10.980;2023-07-31T06:33:45;17.40;99.90
14144;DHT22;7152;48.348;10.980;2023-07-31T06:36:11;17.40;99.90
14144;DHT22;7152;48.348;10.980;2023-07-31T06:38:37;17.50;99.90
14144;DHT22;7152;48.348;10.980;2023-07-31T06:41:03;17.50;99.90
14144;DHT22;7152;48.348;10.980;2023-07-31T06:43:29;17.60;99.90
14144;DHT22;7152;48.348;10.980;2023-07-31T06:45:55;17.70;99.90
14144;DHT22;7152;48.348;10.980;2023-07-31T06:48:21;17.80;99.90
14144;DHT22;7152;48.348;10.980;2023-07-31T06:50:47;18.00;99.90
14144;DHT22;7152;48.348;10.980;2023-07-31T06:53:12;18.20;99.90
14144;DHT22;7152;48.348;10.980;2023-07-31T06:55:38;18.20;99.90
14144;DHT22;7152;48.348;10.980;2023-07-31T06:58:04;18.30;99.90
14144;DHT22;7152;48.348;10.980;2023-07-31T07:00:30;18.30;99.90
14144;DHT22;7152;48.348;10.980;2023-07-31T07:02:56;18.30;99.90
14144;DHT22;7152;48.348;10.980;2023-07-31T07:05:22;18.30;99.90
14144;DHT22;7152;48.348;10.980;2023-07-31T07:07:49;18.40;99.90
14144;DHT22;7152;48.348;10.980;2023-07-31T07:10:16;18.50;99.90
14144;DHT22;7152;48.348;10.980;2023-07-31T07:12:42;18.60;99.90
14144;DHT22;7152;48.348;10.980;2023-07-31T07:15:08;18.70;99.90
14144;DHT22;7152;48.348;10.980;2023-07-31T07:17:34;18.80;99.90
14144;DHT22;7152;48.348;10.980;2023-07-31T07:20:00;19.00;99.90
14144;DHT22;7152;48.348;10.980;2023-07-31T07:22:26;19.10;99.90
14144;DHT22;7152;48.348;10.980;2023-07-31T07:24:53;19.20;99.90
14144;DHT22;7152;48.348;10.980;2023-07-31T07:27:19;19.30;99.90
14144;DHT22;7152;48.348;10.980;2023-07-31T07:29:46;19.40;99.90
14144;DHT22;7152;48.348;10.980;2023-07-31T07:32:12;19.60;99.90
14144;DHT22;7152;48.348;10.980;2023-07-31T07:34:38;19.80;99.90
14144;DHT22;7152;48.348;10.980;2023-07-31T07:37:06;20.00;99.90
14144;DHT22;7152;48.348;10.980;2023-07-31T07:39:32;20.20;99.90
14144;DHT22;7152;48.348;10.980;2023-07-31T07:41:58;20.30;99.90
14144;DHT22;7152;48.348;10.980;2023-07-31T07:44:23;20.50;99.90
14144;DHT22;7152;48.348;10.980;2023-07-31T07:46:49;20.50;99.90
14144;DHT22;7152;48.348;10.980;2023-07-31T07:49:15;20.50;99.90
14144;DHT22;7152;48.348;10.980;2023-07-31T07:51:41;20.50;99.90
14144;DHT22;7152;48.348;10.980;2023-07-31T07:54:07;20.40;99.90
14144;DHT22;7152;48.348;10.980;2023-07-31T07:56:33;20.40;99.90
14144;DHT22;7152;48.348;10.980;2023-07-31T07:58:59;20.30;99.90
14144;DHT22;7152;48.348;10.980;2023-07-31T08:01:25;20.30;99.90
14144;DHT22;7152;48.348;10.980;2023-07-31T08:03:50;20.40;99.90
14144;DHT22;7152;48.348;10.980;2023-07-31T08:06:17;20.50;99.90
14144;DHT22;7152;48.348;10.980;2023-07-31T08:08:42;20.50;99.90
14144;DHT22;7152;48.348;10.980;2023-07-31T08:11:08;20.50;99.90
14144;DHT22;7152;48.348;10.980;2023-07-31T08:13:34;20.40;99.90
14144;DHT22;7152;48.348;10.980;2023-07-31T08:16:03;20.40;99.90
14144;DHT22;7152;48.348;10.980;2023-07-31T08:18:30;20.30;99.90
14144;DHT22;7152;48.348;10.980;2023-07-31T08:20:56;20.10;99.90
14144;DHT22;7152;48.348;10.980;2023-07-31T08:23:22;20.00;99.90
14144;DHT22;7152;48.348;10.980;2023-07-31T08:25:48;19.90;99.90
14144;DHT22;7152;48.348;10.980;2023-07-31T08:28:16;19.90;99.90
14144;DHT22;7152;48.348;10.980;2023-07-31T08:30:42;20.00;99.90
14144;DHT22;7152;48.348;10.980;2023-07-31T08:33:08;20.00;99.90
14144;DHT22;7152;48.348;10.980;2023-07-31T08:35:34;20.20;99.90
14144;DHT22;7152;48.348;10.980;2023-07-31T08:38:00;20.30;99.90
14144;DHT22;7152;48.348;10.980;2023-07-31T08:40:26;20.40;99.90
14144;DHT22;7152;48.348;10.980;2023-07-31T08:42:54;20.50;99.90
14144;DHT22;7152;48.348;10.980;2023-07-31T08:45:22;20.70;99.90
14144;DHT22;7152;48.348;10.980;2023-07-31T08:47:50;20.90;99.90
14144;DHT22;7152;48.348;10.980;2023-07-31T08:50:18;21.10;99.90
14144;DHT22;7152;48.348;10.980;2023-07-31T08:52:46;21.30;99.90
14144;DHT22;7152;48.348;10.980;2023-07-31T08:55:12;21.30;99.90
14144;DHT22;7152;48.348;10.980;2023-07-31T08:57:38;21.40;99.90
14144;DHT22;7152;48.348;10.980;2023-07-31T09:00:06;21.40;99.90
14144;DHT22;7152;48.348;10.980;2023-07-31T09:05:06;21.40;99.90
14144;DHT22;7152;48.348;10.980;2023-07-31T09:07:35;21.50;99.90
14144;DHT22;7152;48.348;10.980;2023-07-31T09:10:02;21.50;99.90
14144;DHT22;7152;48.348;10.980;2023-07-31T09:12:29;21.70;99.90
14144;DHT22;7152;48.348;10.980;2023-07-31T09:14:56;21.80;99.90
14144;DHT22;7152;48.348;10.980;2023-07-31T09:17:34;22.00;99.90
14144;DHT22;7152;48.348;10.980;2023-07-31T09:20:19;22.00;99.90
14144;DHT22;7152;48.348;10.980;2023-07-31T09:22:47;22.10;99.90
14144;DHT22;7152;48.348;10.980;2023-07-31T09:25:19;22.10;99.90
14144;DHT22;7152;48.348;10.980;2023-07-31T09:27:58;22.20;99.90
14144;DHT22;7152;48.348;10.980;2023-07-31T09:30:24;22.20;99.90
14144;DHT22;7152;48.348;10.980;2023-07-31T09:32:59;22.00;99.90
14144;DHT22;7152;48.348;10.980;2023-07-31T09:35:30;22.00;99.90
14144;DHT22;7152;48.348;10.980;2023-07-31T09:38:05;22.10;99.90
14144;DHT22;7152;48.348;10.980;2023-07-31T09:40:38;22.20;99.90
14144;DHT22;7152;48.348;10.980;2023-07-31T09:43:09;22.30;99.90
14144;DHT22;7152;48.348;10.980;2023-07-31T09:45:40;22.30;99.90
14144;DHT22;7152;48.348;10.980;2023-07-31T09:48:16;22.40;99.90
14144;DHT22;7152;48.348;10.980;2023-07-31T09:50:48;22.40;99.90
14144;DHT22;7152;48.348;10.980;2023-07-31T09:53:15;22.40;99.90
14144;DHT22;7152;48.348;10.980;2023-07-31T09:55:42;22.50;99.90
14144;DHT22;7152;48.348;10.980;2023-07-31T09:58:10;22.60;99.90
14144;DHT22;7152;48.348;10.980;2023-07-31T10:00:37;22.90;99.90
14144;DHT22;7152;48.348;10.980;2023-07-31T10:03:09;23.30;99.90
14144;DHT22;7152;48.348;10.980;2023-07-31T10:08:03;24.00;99.90
14144;DHT22;7152;48.348;10.980;2023-07-31T10:10:30;24.20;99.90
14144;DHT22;7152;48.348;10.980;2023-07-31T10:12:56;24.10;99.90
14144;DHT22;7152;48.348;10.980;2023-07-31T10:15:23;24.30;99.90
14144;DHT22;7152;48.348;10.980;2023-07-31T10:17:51;24.20;99.90
14144;DHT22;7152;48.348;10.980;2023-07-31T10:20:17;24.10;99.90
14144;DHT22;7152;48.348;10.980;2023-07-31T10:22:44;23.80;99.90
14144;DHT22;7152;48.348;10.980;2023-07-31T10:25:13;23.90;99.90
14144;DHT22;7152;48.348;10.980;2023-07-31T10:27:40;24.10;99.90
14144;DHT22;7152;48.348;10.980;2023-07-31T10:30:09;24.20;99.90
14144;DHT22;7152;48.348;10.980;2023-07-31T10:32:36;24.30;99.90
14144;DHT22;7152;48.348;10.980;2023-07-31T10:35:04;24.30;99.90
14144;DHT22;7152;48.348;10.980;2023-07-31T10:37:36;24.40;99.90
14144;DHT22;7152;48.348;10.980;2023-07-31T10:42:38;24.30;99.90
14144;DHT22;7152;48.348;10.980;2023-07-31T10:45:10;24.20;99.90
14144;DHT22;7152;48.348;10.980;2023-07-31T10:47:43;23.90;99.90
14144;DHT22;7152;48.348;10.980;2023-07-31T10:50:17;23.60;99.90
14144;DHT22;7152;48.348;10.980;2023-07-31T10:52:55;23.70;99.90
14144;DHT22;7152;48.348;10.980;2023-07-31T10:55:40;24.40;99.90
14144;DHT22;7152;48.348;10.980;2023-07-31T10:58:09;25.20;99.90
14144;DHT22;7152;48.348;10.980;2023-07-31T11:00:43;25.60;99.90
14144;DHT22;7152;48.348;10.980;2023-07-31T11:03:19;25.70;99.90
14144;DHT22;7152;48.348;10.980;2023-07-31T11:05:53;26.10;99.90
14144;DHT22;7152;48.348;10.980;2023-07-31T11:08:22;26.70;99.90
14144;DHT22;7152;48.348;10.980;2023-07-31T11:11:22;27.00;99.90
14144;DHT22;7152;48.348;10.980;2023-07-31T11:13:44;27.20;99.90
14144;DHT22;7152;48.348;10.980;2023-07-31T11:16:13;27.20;99.90
14144;DHT22;7152;48.348;10.980;2023-07-31T11:18:41;27.30;99.90
14144;DHT22;7152;48.348;10.980;2023-07-31T11:21:08;27.60;99.90
14144;DHT22;7152;48.348;10.980;2023-07-31T11:23:37;27.60;99.90
14144;DHT22;7152;48.348;10.980;2023-07-31T11:26:05;27.70;99.90
14144;DHT22;7152;48.348;10.980;2023-07-31T11:28:33;28.00;99.90
14144;DHT22;7152;48.348;10.980;2023-07-31T11:30:59;28.40;99.90
14144;DHT22;7152;48.348;10.980;2023-07-31T11:33:26;28.50;99.90
14144;DHT22;7152;48.348;10.980;2023-07-31T11:35:52;28.70;99.90
14144;DHT22;7152;48.348;10.980;2023-07-31T11:38:22;29.00;99.90
14144;DHT22;7152;48.348;10.980;2023-07-31T11:40:50;29.10;99.90
14144;DHT22;7152;48.348;10.980;2023-07-31T11:43:16;29.50;99.90
14144;DHT22;7152;48.348;10.980;2023-07-31T11:45:54;30.10;99.90
14144;DHT22;7152;48.348;10.980;2023-07-31T11:48:21;30.70;99.70
14144;DHT22;7152;48.348;10.980;2023-07-31T11:50:48;31.10;98.90
14144;DHT22;7152;48.348;10.980;2023-07-31T11:53:15;31.50;98.90
14144;DHT22;7152;48.348;10.980;2023-07-31T11:55:41;31.40;97.80
14144;DHT22;7152;48.348;10.980;2023-07-31T11:58:08;31.90;97.20
14144;DHT22;7152;48.348;10.980;2023-07-31T12:00:34;32.30;97.40
14144;DHT22;7152;48.348;10.980;2023-07-31T12:03:00;32.60;96.00
14144;DHT22;7152;48.348;10.980;2023-07-31T12:05:26;33.00;95.20
14144;DHT22;7152;48.348;10.980;2023-07-31T12:07:55;33.30;94.00
14144;DHT22;7152;48.348;10.980;2023-07-31T12:10:28;33.20;92.50
14144;DHT22;7152;48.348;10.980;2023-07-31T12:13:19;32.70;91.90
14144;DHT22;7152;48.348;10.980;2023-07-31T12:15:46;32.70;90.80
14144;DHT22;7152;48.348;10.980;2023-07-31T12:18:18;32.70;91.60
14144;DHT22;7152;48.348;10.980;2023-07-31T12:21:27;33.20;90.90
14144;DHT22;7152;48.348;10.980;2023-07-31T12:23:36;33.00;91.50
14144;DHT22;7152;48.348;10.980;2023-07-31T12:26:11;33.50;91.30
14144;DHT22;7152;48.348;10.980;2023-07-31T12:28:42;34.00;89.50
14144;DHT22;7152;48.348;10.980;2023-07-31T12:31:10;34.10;88.10
14144;DHT22;7152;48.348;10.980;2023-07-31T12:33:37;34.60;86.10
14144;DHT22;7152;48.348;10.980;2023-07-31T12:36:10;34.10;86.50
14144;DHT22;7152;48.348;10.980;2023-07-31T12:38:36;34.00;85.50
14144;DHT22;7152;48.348;10.980;2023-07-31T12:41:02;34.40;85.20
14144;DHT22;7152;48.348;10.980;2023-07-31T12:43:28;34.40;84.80
14144;DHT22;7152;48.348;10.980;2023-07-31T12:45:54;34.40;84.20
14144;DHT22;7152;48.348;10.980;2023-07-31T12:48:21;34.40;83.50
14144;DHT22;7152;48.348;10.980;2023-07-31T12:50:47;35.00;83.50
14144;DHT22;7152;48.348;10.980;2023-07-31T12:53:14;35.30;80.80
14144;DHT22;7152;48.348;10.980;2023-07-31T12:55:40;35.80;79.70
14144;DHT22;7152;48.348;10.980;2023-07-31T12:58:06;35.70;78.20
14144;DHT22;7152;48.348;10.980;2023-07-31T13:00:32;34.90;77.20
14144;DHT22;7152;48.348;10.980;2023-07-31T13:02:59;33.90;77.30
14144;DHT22;7152;48.348;10.980;2023-07-31T13:05:26;33.10;78.60
14144;DHT22;7152;48.348;10.980;2023-07-31T13:07:52;32.40;80.50
14144;DHT22;7152;48.348;10.980;2023-07-31T13:10:18;32.70;80.80
14144;DHT22;7152;48.348;10.980;2023-07-31T13:12:45;33.20;81.00
14144;DHT22;7152;48.348;10.980;2023-07-31T13:15:10;32.90;81.20
14144;DHT22;7152;48.348;10.980;2023-07-31T13:17:36;33.30;81.30
14144;DHT22;7152;48.348;10.980;2023-07-31T13:20:03;33.50;79.50
14144;DHT22;7152;48.348;10.980;2023-07-31T13:22:29;34.10;78.50
14144;DHT22;7152;48.348;10.980;2023-07-31T13:24:55;34.50;77.70
14144;DHT22;7152;48.348;10.980;2023-07-31T13:27:21;35.20;76.60
14144;DHT22;7152;48.348;10.980;2023-07-31T13:29:48;35.40;76.90
14144;DHT22;7152;48.348;10.980;2023-07-31T13:32:16;34.70;75.20
14144;DHT22;7152;48.348;10.980;2023-07-31T13:34:42;33.40;73.60
14144;DHT22;7152;48.348;10.980;2023-07-31T13:37:08;32.50;74.90
14144;DHT22;7152;48.348;10.980;2023-07-31T13:39:34;31.70;76.70
14144;DHT22;7152;48.348;10.980;2023-07-31T13:42:02;31.20;78.10
14144;DHT22;7152;48.348;10.980;2023-07-31T13:44:28;30.70;78.80
14144;DHT22;7152;48.348;10.980;2023-07-31T13:46:54;30.20;80.00
14144;DHT22;7152;48.348;10.980;2023-07-31T13:49:20;29.80;81.60
14144;DHT22;7152;48.348;10.980;2023-07-31T13:51:46;29.40;82.30
14144;DHT22;7152;48.348;10.980;2023-07-31T13:54:12;29.10;83.50
14144;DHT22;7152;48.348;10.980;2023-07-31T13:56:38;28.90;82.00
14144;DHT22;7152;48.348;10.980;2023-07-31T13:59:04;29.10;81.90
14144;DHT22;7152;48.348;10.980;2023-07-31T14:01:30;29.80;81.90
14144;DHT22;7152;48.348;10.980;2023-07-31T14:03:56;29.50;82.20
14144;DHT22;7152;48.348;10.980;2023-07-31T14:06:22;29.00;81.90
14144;DHT22;7152;48.348;10.980;2023-07-31T14:08:48;28.50;82.20
14144;DHT22;7152;48.348;10.980;2023-07-31T14:11:14;28.10;82.80
14144;DHT22;7152;48.348;10.980;2023-07-31T14:13:39;28.00;83.90
14144;DHT22;7152;48.348;10.980;2023-07-31T14:16:06;27.90;84.60
14144;DHT22;7152;48.348;10.980;2023-07-31T14:18:32;27.60;85.00
14144;DHT22;7152;48.348;10.980;2023-07-31T14:20:58;27.60;86.10
14144;DHT22;7152;48.348;10.980;2023-07-31T14:23:23;27.40;86.00
14144;DHT22;7152;48.348;10.980;2023-07-31T14:25:49;27.20;86.20
14144;DHT22;7152;48.348;10.980;2023-07-31T14:28:15;26.80;86.80
14144;DHT22;7152;48.348;10.980;2023-07-31T14:30:41;26.70;87.10
14144;DHT22;7152;48.348;10.980;2023-07-31T14:33:07;26.40;87.90
14144;DHT22;7152;48.348;10.980;2023-07-31T14:35:34;26.40;88.90
14144;DHT22;7152;48.348;10.980;2023-07-31T14:38:00;26.10;90.70
14144;DHT22;7152;48.348;10.980;2023-07-31T14:40:26;26.10;91.30
14144;DHT22;7152;48.348;10.980;2023-07-31T14:42:52;26.30;92.00
14144;DHT22;7152;48.348;10.980;2023-07-31T14:45:18;26.40;92.00
14144;DHT22;7152;48.348;10.980;2023-07-31T14:47:44;26.30;92.00
14144;DHT22;7152;48.348;10.980;2023-07-31T14:50:10;26.30;92.10
14144;DHT22;7152;48.348;10.980;2023-07-31T14:52:36;26.20;91.70
14144;DHT22;7152;48.348;10.980;2023-07-31T14:55:02;26.10;91.30
14144;DHT22;7152;48.348;10.980;2023-07-31T14:57:27;26.30;91.20
14144;DHT22;7152;48.348;10.980;2023-07-31T14:59:53;26.40;91.00
14144;DHT22;7152;48.348;10.980;2023-07-31T15:02:19;26.50;91.20
14144;DHT22;7152;48.348;10.980;2023-07-31T15:04:45;26.30;91.40
14144;DHT22;7152;48.348;10.980;2023-07-31T15:07:11;26.10;91.90
14144;DHT22;7152;48.348;10.980;2023-07-31T15:09:39;25.90;92.00
14144;DHT22;7152;48.348;10.980;2023-07-31T15:12:05;25.60;92.20
14144;DHT22;7152;48.348;10.980;2023-07-31T15:14:31;25.40;92.50
14144;DHT22;7152;48.348;10.980;2023-07-31T15:16:58;25.20;92.80
14144;DHT22;7152;48.348;10.980;2023-07-31T15:19:24;24.90;92.50
14144;DHT22;7152;48.348;10.980;2023-07-31T15:21:50;24.70;92.70
14144;DHT22;7152;48.348;10.980;2023-07-31T15:24:16;24.50;92.60
14144;DHT22;7152;48.348;10.980;2023-07-31T15:26:41;24.40;92.80
14144;DHT22;7152;48.348;10.980;2023-07-31T15:29:08;24.40;93.50
14144;DHT22;7152;48.348;10.980;2023-07-31T15:31:35;24.30;94.00
14144;DHT22;7152;48.348;10.980;2023-07-31T15:34:01;24.20;93.60
14144;DHT22;7152;48.348;10.980;2023-07-31T15:36:27;24.10;93.90
14144;DHT22;7152;48.348;10.980;2023-07-31T15:38:53;24.10;94.50
14144;DHT22;7152;48.348;10.980;2023-07-31T15:41:19;24.00;94.30